createdAt,value
2023-01-17T00:02:05.931Z,2.85
2023-01-17T00:04:50.974Z,3.00
2023-01-17T00:07:37.835Z,4.00
2023-01-17T00:10:12.149Z,4.75
2023-01-17T00:12:39.342Z,2.38
2023-01-17T00:15:07.248Z,3.53
2023-01-17T00:17:33.723Z,2.08
2023-01-17T00:20:20.255Z,3.80
2023-01-17T00:23:05.615Z,2.33
2023-01-17T00:25:55.261Z,2.65
2023-01-17T00:28:22.130Z,3.08
2023-01-17T00:30:48.529Z,1.95
2023-01-17T00:33:14.895Z,1.85
2023-01-17T00:35:41.481Z,4.47
2023-01-17T00:38:13.091Z,1.63
2023-01-17T00:40:42.452Z,1.80
2023-01-17T00:43:28.781Z,3.47
2023-01-17T00:46:14.347Z,2.08
2023-01-17T00:49:02.273Z,2.92
2023-01-17T00:51:49.050Z,2.05
2023-01-17T00:54:34.576Z,1.40
2023-01-17T00:57:20.399Z,2.15
2023-01-17T01:00:05.644Z,2.47
2023-01-17T01:02:50.950Z,3.20
2023-01-17T01:05:35.848Z,2.25
2023-01-17T01:08:21.887Z,5.70
2023-01-17T01:11:07.792Z,1.98
2023-01-17T01:13:53.302Z,3.25
2023-01-17T01:16:38.537Z,2.85
2023-01-17T01:19:24.344Z,3.83
2023-01-17T01:22:09.265Z,1.38
2023-01-17T01:24:54.014Z,3.63
2023-01-17T01:27:39.075Z,1.27
2023-01-17T01:30:24.471Z,3.25
2023-01-17T01:33:09.367Z,3.35
2023-01-17T01:35:36.925Z,2.47
2023-01-17T01:38:03.920Z,2.72
2023-01-17T01:40:30.349Z,1.38
2023-01-17T01:43:00.224Z,1.23
2023-01-17T01:45:29.700Z,1.20
2023-01-17T01:48:20.764Z,1.98
2023-01-17T01:50:50.297Z,1.25
2023-01-17T01:53:20.102Z,2.00
2023-01-17T01:55:49.286Z,1.83
2023-01-17T01:58:22.815Z,1.50
2023-01-17T02:00:49.330Z,1.40
2023-01-17T02:03:21.430Z,2.25
2023-01-17T02:05:48.207Z,3.55
2023-01-17T02:08:17.066Z,2.78
2023-01-17T02:10:46.867Z,2.35
2023-01-17T02:13:16.033Z,11.10
2023-01-17T02:15:57.822Z,1.90
2023-01-17T02:18:30.790Z,1.73
2023-01-17T02:21:14.254Z,1.98
2023-01-17T02:23:46.567Z,4.47
2023-01-17T02:26:16.033Z,4.10
2023-01-17T02:29:06.987Z,2.40
2023-01-17T02:31:37.055Z,2.92
2023-01-17T02:34:10.646Z,3.72
2023-01-17T02:36:44.480Z,2.42
2023-01-17T02:39:20.602Z,3.97
2023-01-17T02:42:04.619Z,3.20
2023-01-17T02:44:40.853Z,5.82
2023-01-17T02:47:30.089Z,2.67
2023-01-17T02:50:03.461Z,2.40
2023-01-17T02:52:36.015Z,2.58
2023-01-17T02:55:23.844Z,3.53
2023-01-17T02:58:13.303Z,4.93
2023-01-17T03:01:03.100Z,3.30
2023-01-17T03:03:50.218Z,3.55
2023-01-17T03:06:26.777Z,2.90
2023-01-17T03:08:53.969Z,4.05
2023-01-17T03:11:20.659Z,4.03
2023-01-17T03:13:47.111Z,4.68
2023-01-17T03:16:21.810Z,3.85
2023-01-17T03:18:49.215Z,3.47
2023-01-17T03:21:15.676Z,3.08
2023-01-17T03:23:42.196Z,2.50
2023-01-17T03:26:08.631Z,1.90
2023-01-17T03:28:35.049Z,3.05
2023-01-17T03:31:01.515Z,3.17
2023-01-17T03:33:27.932Z,2.45
2023-01-17T03:35:57.966Z,2.83
2023-01-17T03:38:28.770Z,2.15
2023-01-17T03:40:55.400Z,3.03
2023-01-17T03:43:21.788Z,2.63
2023-01-17T03:45:54.451Z,3.45
2023-01-17T03:48:21.684Z,7.15
2023-01-17T03:50:51.469Z,2.13
2023-01-17T03:53:17.884Z,3.40
2023-01-17T03:55:47.566Z,2.28
2023-01-17T03:58:14.173Z,4.28
2023-01-17T04:00:40.557Z,5.10
2023-01-17T04:03:06.967Z,3.03
2023-01-17T04:05:33.406Z,4.30
2023-01-17T04:07:59.793Z,3.13
2023-01-17T04:10:26.331Z,4.07
2023-01-17T04:12:52.749Z,2.65
2023-01-17T04:15:19.131Z,4.47
2023-01-17T04:17:45.540Z,8.90
2023-01-17T04:20:32.835Z,6.43
2023-01-17T04:22:59.464Z,3.58
2023-01-17T04:25:26.040Z,2.75
2023-01-17T04:27:53.788Z,4.35
2023-01-17T04:30:20.255Z,4.05
2023-01-17T04:32:46.826Z,2.72
2023-01-17T04:35:13.340Z,2.33
2023-01-17T04:37:39.878Z,5.38
2023-01-17T04:40:07.189Z,3.58
2023-01-17T04:42:33.614Z,4.25
2023-01-17T04:45:00.037Z,3.63
2023-01-17T04:47:26.410Z,3.63
2023-01-17T04:49:53.572Z,2.80
2023-01-17T04:52:20.658Z,4.68
2023-01-17T04:54:49.534Z,4.10
2023-01-17T04:57:17.247Z,4.88
2023-01-17T04:59:44.301Z,2.95
2023-01-17T05:02:11.105Z,4.32
2023-01-17T05:04:37.817Z,3.92
2023-01-17T05:07:04.725Z,9.68
2023-01-17T05:09:31.209Z,7.35
2023-01-17T05:11:57.720Z,7.75
2023-01-17T05:14:26.300Z,4.97
2023-01-17T05:16:57.057Z,4.60
2023-01-17T05:19:24.669Z,5.55
2023-01-17T05:21:51.292Z,5.32
2023-01-17T05:24:18.776Z,3.50
2023-01-17T05:26:46.040Z,3.67
2023-01-17T05:29:12.493Z,15.55
2023-01-17T05:31:39.004Z,3.63
2023-01-17T05:34:05.391Z,3.40
2023-01-17T05:36:31.819Z,7.13
2023-01-17T05:38:59.241Z,8.32
2023-01-17T05:41:25.685Z,4.88
2023-01-17T05:43:52.068Z,5.43
2023-01-17T05:46:18.530Z,7.13
2023-01-17T05:48:45.002Z,5.95
2023-01-17T05:51:11.610Z,6.10
2023-01-17T05:53:38.008Z,7.82
2023-01-17T05:56:04.657Z,6.95
2023-01-17T05:58:31.072Z,7.63
2023-01-17T06:00:57.498Z,5.43
2023-01-17T06:03:24.021Z,8.05
2023-01-17T06:05:50.477Z,5.72
2023-01-17T06:08:17.056Z,7.70
2023-01-17T06:10:43.481Z,5.68
2023-01-17T06:13:12.626Z,3.88
2023-01-17T06:15:39.639Z,12.40
2023-01-17T06:18:08.645Z,11.75
2023-01-17T06:23:04.426Z,6.57
2023-01-17T06:25:36.470Z,4.28
2023-01-17T06:28:03.031Z,3.75
2023-01-17T06:30:29.453Z,5.15
2023-01-17T06:32:55.878Z,5.40
2023-01-17T06:35:22.900Z,4.30
2023-01-17T06:37:55.570Z,4.53
2023-01-17T06:40:22.443Z,3.65
2023-01-17T06:42:48.871Z,9.43
2023-01-17T06:45:15.295Z,4.90
2023-01-17T06:47:41.820Z,4.88
2023-01-17T06:50:11.126Z,3.67
2023-01-17T06:52:37.647Z,5.30
2023-01-17T06:55:04.587Z,4.15
2023-01-17T06:57:31.051Z,4.75
2023-01-17T06:59:57.514Z,3.92
2023-01-17T07:02:24.150Z,5.25
2023-01-17T07:04:50.605Z,5.15
2023-01-17T07:07:17.204Z,5.57
2023-01-17T07:09:44.081Z,3.70
2023-01-17T07:12:10.755Z,8.43
2023-01-17T07:14:37.355Z,5.88
2023-01-17T07:17:04.271Z,10.23
2023-01-17T07:19:30.705Z,6.78
2023-01-17T07:21:57.189Z,5.97
2023-01-17T07:24:23.616Z,6.03
2023-01-17T07:26:51.584Z,6.07
2023-01-17T07:29:18.436Z,6.22
2023-01-17T07:31:44.897Z,5.90
2023-01-17T07:34:11.542Z,7.90
2023-01-17T07:36:38.042Z,7.45
2023-01-17T07:39:06.314Z,6.45
2023-01-17T07:41:35.645Z,9.02
2023-01-17T07:44:02.052Z,8.32
2023-01-17T07:46:28.448Z,7.22
2023-01-17T07:48:54.863Z,12.50
2023-01-17T07:51:21.306Z,5.10
2023-01-17T07:53:47.712Z,5.18
2023-01-17T07:56:14.101Z,4.95
2023-01-17T07:58:40.556Z,4.00
2023-01-17T08:01:09.540Z,4.93
2023-01-17T08:03:39.858Z,4.53
2023-01-17T08:06:13.503Z,5.35
2023-01-17T08:08:39.932Z,4.60
2023-01-17T08:11:06.320Z,5.10
2023-01-17T08:13:32.736Z,5.63
2023-01-17T08:16:02.296Z,5.22
2023-01-17T08:18:29.780Z,4.45
2023-01-17T08:20:56.405Z,4.72
2023-01-17T08:23:23.043Z,9.60
2023-01-17T08:25:49.608Z,7.28
2023-01-17T08:28:16.022Z,5.78
2023-01-17T08:30:42.390Z,7.25
2023-01-17T08:33:08.781Z,14.32
2023-01-17T08:35:36.343Z,7.40
2023-01-17T08:38:04.877Z,4.93
2023-01-17T08:40:32.735Z,4.88
2023-01-17T08:43:00.896Z,6.43
2023-01-17T08:45:27.879Z,5.45
2023-01-17T08:47:54.319Z,6.55
2023-01-17T08:50:20.807Z,8.38
2023-01-17T08:52:48.693Z,8.55
2023-01-17T08:55:16.101Z,14.45
2023-01-17T08:57:42.581Z,11.57
2023-01-17T09:00:09.618Z,10.27
2023-01-17T09:02:36.347Z,5.28
2023-01-17T09:05:02.880Z,9.18
2023-01-17T09:07:29.312Z,7.03
2023-01-17T09:09:55.787Z,10.57
2023-01-17T09:12:22.372Z,7.43
2023-01-17T09:14:49.309Z,9.68
2023-01-17T09:17:16.081Z,6.72
2023-01-17T09:19:46.579Z,9.52
2023-01-17T09:22:15.884Z,8.20
2023-01-17T09:24:42.528Z,14.75
2023-01-17T09:27:09.011Z,8.10
2023-01-17T09:29:35.527Z,6.55
2023-01-17T09:32:02.120Z,5.82
2023-01-17T09:34:28.560Z,7.50
2023-01-17T09:36:56.950Z,7.85
2023-01-17T09:39:23.489Z,11.93
2023-01-17T09:42:02.052Z,11.02
2023-01-17T09:44:42.728Z,9.25
2023-01-17T09:47:24.665Z,12.23
2023-01-17T09:49:53.135Z,13.10
2023-01-17T09:52:23.355Z,7.93
2023-01-17T09:54:50.984Z,7.78
2023-01-17T09:57:26.309Z,9.65
2023-01-17T10:00:26.718Z,6.78
2023-01-17T10:03:27.291Z,4.65
2023-01-17T10:06:05.506Z,6.00
2023-01-17T10:08:57.934Z,16.23
2023-01-17T10:11:37.530Z,18.60
2023-01-17T10:14:21.009Z,10.88
2023-01-17T10:17:38.726Z,7.60
2023-01-17T10:20:34.007Z,5.32
2023-01-17T10:23:31.905Z,9.60
2023-01-17T10:26:03.111Z,6.82
2023-01-17T10:28:40.405Z,12.57
2023-01-17T10:31:26.255Z,14.02
2023-01-17T10:34:03.636Z,4.90
2023-01-17T10:36:34.673Z,8.10
2023-01-17T10:39:12.738Z,9.32
2023-01-17T10:41:50.780Z,6.50
2023-01-17T10:44:49.755Z,9.00
2023-01-17T10:47:24.534Z,19.98
2023-01-17T10:49:53.669Z,14.52
2023-01-17T10:52:38.971Z,8.25
2023-01-17T10:55:30.413Z,8.68
2023-01-17T10:57:58.153Z,7.68
2023-01-17T11:00:59.677Z,13.77
2023-01-17T11:03:27.464Z,7.75
2023-01-17T11:06:16.177Z,11.02
2023-01-17T11:08:54.263Z,15.77
2023-01-17T11:11:24.638Z,7.72
2023-01-17T11:13:53.552Z,10.77
2023-01-17T11:16:26.697Z,8.50
2023-01-17T11:19:18.726Z,13.52
2023-01-17T11:21:57.529Z,10.50
2023-01-17T11:24:52.551Z,6.00
2023-01-17T11:27:28.122Z,3.65
2023-01-17T11:30:16.496Z,5.18
2023-01-17T11:33:06.058Z,6.25
2023-01-17T11:35:35.038Z,5.47
2023-01-17T11:38:10.767Z,7.10
2023-01-17T11:40:40.936Z,12.00
2023-01-17T11:43:26.492Z,6.63
2023-01-17T11:46:18.610Z,5.43
2023-01-17T11:48:56.126Z,5.68
2023-01-17T11:51:28.397Z,6.38
2023-01-17T11:54:03.376Z,8.40
2023-01-17T11:56:33.508Z,5.88
2023-01-17T11:59:18.462Z,5.95
2023-01-17T12:01:55.692Z,5.80
2023-01-17T12:04:29.740Z,5.28
2023-01-17T12:07:19.243Z,8.90
2023-01-17T12:10:18.977Z,5.65
2023-01-17T12:13:25.425Z,6.95
2023-01-17T12:16:00.001Z,8.02
2023-01-17T12:18:45.688Z,8.27
2023-01-17T12:21:20.508Z,6.63
2023-01-17T12:24:05.715Z,5.68
2023-01-17T12:26:45.663Z,6.03
2023-01-17T12:29:27.503Z,25.42
2023-01-17T12:32:26.028Z,4.75
2023-01-17T12:35:15.215Z,11.00
2023-01-17T12:37:44.798Z,5.72
2023-01-17T12:40:17.141Z,3.95
2023-01-17T12:42:51.868Z,5.22
2023-01-17T12:45:32.053Z,9.13
2023-01-17T12:48:05.263Z,13.68
2023-01-17T12:50:43.137Z,4.97
2023-01-17T12:53:37.886Z,13.43
2023-01-17T12:56:30.431Z,4.90
2023-01-17T12:59:13.065Z,12.25
2023-01-17T13:01:40.047Z,4.65
2023-01-17T13:04:57.022Z,7.80
2023-01-17T13:07:47.579Z,4.20
2023-01-17T13:10:31.060Z,5.53
2023-01-17T13:13:13.220Z,3.17
2023-01-17T13:15:41.635Z,4.15
2023-01-17T13:18:17.292Z,8.85
2023-01-17T13:20:59.352Z,4.10
2023-01-17T13:23:37.477Z,5.43
2023-01-17T13:26:14.779Z,8.75
2023-01-17T13:29:35.241Z,5.97
2023-01-17T13:34:49.109Z,7.15
2023-01-17T13:37:53.296Z,4.60
2023-01-17T13:40:31.704Z,6.03
2023-01-17T13:43:01.113Z,6.20
2023-01-17T13:45:31.271Z,5.00
2023-01-17T13:48:40.800Z,5.53
2023-01-17T13:51:11.045Z,8.70
2023-01-17T13:53:40.549Z,5.95
2023-01-17T13:56:16.024Z,10.85
2023-01-17T13:59:03.621Z,4.30
2023-01-17T14:01:34.747Z,9.20
2023-01-17T14:04:04.074Z,3.88
2023-01-17T14:06:44.208Z,5.40
2023-01-17T14:09:22.158Z,3.97
2023-01-17T14:12:05.958Z,4.65
2023-01-17T14:14:37.282Z,6.40
2023-01-17T14:17:27.988Z,3.80
2023-01-17T14:20:26.101Z,8.80
2023-01-17T14:22:55.941Z,5.13
2023-01-17T14:25:29.940Z,2.60
2023-01-17T14:28:07.811Z,5.45
2023-01-17T14:30:36.831Z,9.48
2023-01-17T14:33:04.746Z,68.97
2023-01-17T14:35:49.509Z,31.13
2023-01-17T14:38:22.997Z,30.23
2023-01-17T14:40:53.927Z,20.20
2023-01-17T14:43:23.558Z,25.75
2023-01-17T14:45:57.740Z,20.08
2023-01-17T14:48:24.934Z,22.25
2023-01-17T14:50:54.184Z,16.02
2023-01-17T14:53:27.901Z,12.43
2023-01-17T14:55:56.578Z,18.08
2023-01-17T14:58:23.034Z,27.15
2023-01-17T15:00:56.648Z,26.42
2023-01-17T15:03:23.446Z,30.45
2023-01-17T15:05:52.733Z,34.22
2023-01-17T15:08:22.323Z,24.23
2023-01-17T15:10:58.746Z,13.52
2023-01-17T15:13:43.936Z,46.13
2023-01-17T15:16:20.682Z,14.32
2023-01-17T15:18:47.803Z,9.32
2023-01-17T15:21:21.171Z,8.38
2023-01-17T15:23:54.968Z,9.38
2023-01-17T15:26:24.644Z,11.80
2023-01-17T15:28:53.317Z,9.00
2023-01-17T15:31:48.349Z,12.00
2023-01-17T15:34:34.782Z,13.82
2023-01-17T15:37:08.067Z,12.65
2023-01-17T15:39:37.612Z,13.00
2023-01-17T15:42:07.938Z,18.40
2023-01-17T15:44:47.916Z,14.65
2023-01-17T15:47:38.526Z,12.20
2023-01-17T15:50:27.933Z,16.20
2023-01-17T15:53:00.975Z,20.33
2023-01-17T15:55:38.830Z,16.10
2023-01-17T15:58:23.420Z,16.15
2023-01-17T16:00:49.912Z,17.58
2023-01-17T16:03:19.328Z,19.98
2023-01-17T16:05:48.860Z,14.35
2023-01-17T16:08:16.277Z,17.40
2023-01-17T16:10:44.024Z,20.52
2023-01-17T16:13:12.762Z,16.58
2023-01-17T16:15:42.675Z,16.83
2023-01-17T16:18:23.988Z,15.38
2023-01-17T16:20:59.410Z,16.88
2023-01-17T16:23:26.496Z,16.45
2023-01-17T16:25:53.991Z,17.00
2023-01-17T16:28:20.909Z,13.13
2023-01-17T16:30:48.795Z,10.32
2023-01-17T16:33:15.553Z,13.40
2023-01-17T16:35:44.063Z,12.77
2023-01-17T16:38:12.569Z,13.90
2023-01-17T16:40:41.909Z,13.75
2023-01-17T16:43:11.434Z,16.77
2023-01-17T16:45:53.142Z,11.65
2023-01-17T16:48:20.344Z,12.75
2023-01-17T16:50:50.710Z,17.15
2023-01-17T16:53:24.823Z,15.65
2023-01-17T16:55:56.219Z,14.23
2023-01-17T16:58:23.045Z,12.25
2023-01-17T17:00:50.529Z,9.32
2023-01-17T17:03:18.867Z,12.68
2023-01-17T17:05:47.224Z,10.13
2023-01-17T17:08:15.416Z,10.75
2023-01-17T17:10:41.881Z,12.02
2023-01-17T17:13:08.393Z,9.80
2023-01-17T17:15:34.785Z,21.88
2023-01-17T17:18:01.561Z,17.30
2023-01-17T17:20:28.007Z,15.98
2023-01-17T17:22:54.387Z,14.82
2023-01-17T17:25:20.851Z,15.02
2023-01-17T17:27:47.303Z,17.27
2023-01-17T17:30:14.120Z,10.77
2023-01-17T17:32:40.610Z,15.32
2023-01-17T17:35:07.274Z,24.67
2023-01-17T17:37:34.727Z,33.53
2023-01-17T17:40:01.233Z,24.27
2023-01-17T17:42:27.638Z,27.52
2023-01-17T17:44:54.172Z,18.23
2023-01-17T17:47:20.629Z,22.27
2023-01-17T17:49:47.076Z,17.38
2023-01-17T17:52:13.503Z,13.05
2023-01-17T17:54:40.046Z,12.13
2023-01-17T17:57:07.449Z,8.07
2023-01-17T17:59:33.978Z,11.20
2023-01-17T18:02:00.392Z,18.90
2023-01-17T18:04:27.103Z,21.52
2023-01-17T18:06:57.945Z,16.13
2023-01-17T18:09:25.428Z,17.88
2023-01-17T18:11:51.986Z,13.55
2023-01-17T18:14:21.015Z,18.42
2023-01-17T18:16:47.793Z,9.40
2023-01-17T18:19:17.257Z,17.83
2023-01-17T18:21:43.676Z,12.82
2023-01-17T18:24:13.047Z,9.98
2023-01-17T18:26:45.156Z,6.05
2023-01-17T18:29:17.680Z,10.05
2023-01-17T18:31:45.592Z,9.80
2023-01-17T18:34:14.708Z,10.20
2023-01-17T18:36:41.564Z,15.10
2023-01-17T18:39:24.639Z,16.13
2023-01-17T18:41:51.586Z,17.95
2023-01-17T18:44:21.747Z,24.52
2023-01-17T18:46:48.999Z,22.92
2023-01-17T18:49:18.259Z,19.50
2023-01-17T18:51:50.763Z,19.65
2023-01-17T18:54:18.584Z,18.38
2023-01-17T18:56:45.132Z,14.02
2023-01-17T18:59:13.417Z,12.13
2023-01-17T19:01:43.437Z,11.23
2023-01-17T19:04:11.505Z,11.90
2023-01-17T19:06:40.819Z,14.82
2023-01-17T19:09:08.556Z,14.48
2023-01-17T19:11:36.677Z,10.93
2023-01-17T19:14:03.630Z,16.95
2023-01-17T19:16:34.772Z,18.08
2023-01-17T19:19:04.525Z,21.30
2023-01-17T19:21:31.174Z,22.90
2023-01-17T19:23:57.924Z,19.30
2023-01-17T19:26:26.428Z,22.25
2023-01-17T19:28:55.738Z,11.93
2023-01-17T19:31:24.618Z,11.20
2023-01-17T19:33:53.527Z,9.80
2023-01-17T19:36:23.567Z,11.75
2023-01-17T19:39:03.500Z,17.35
2023-01-17T19:41:32.166Z,15.75
2023-01-17T19:44:01.331Z,27.08
2023-01-17T19:46:28.266Z,16.00
2023-01-17T19:48:56.323Z,13.15
2023-01-17T19:51:24.142Z,15.93
2023-01-17T19:53:50.670Z,14.98
2023-01-17T19:56:19.720Z,11.80
2023-01-17T19:58:47.563Z,11.93
2023-01-17T20:01:17.329Z,12.07
2023-01-17T20:03:44.792Z,15.00
2023-01-17T20:06:13.794Z,13.75
2023-01-17T20:08:40.720Z,9.57
2023-01-17T20:11:21.797Z,10.45
2023-01-17T20:13:51.320Z,20.65
2023-01-17T20:16:18.103Z,14.15
2023-01-17T20:18:45.648Z,10.10
2023-01-17T20:21:14.707Z,10.20
2023-01-17T20:23:42.941Z,9.05
2023-01-17T20:26:11.582Z,10.55
2023-01-17T20:28:40.895Z,11.45
2023-01-17T20:31:17.454Z,12.35
2023-01-17T20:33:45.702Z,11.40
2023-01-17T20:36:14.917Z,14.23
2023-01-17T20:38:45.776Z,12.70
2023-01-17T20:41:33.377Z,11.68
2023-01-17T20:44:01.728Z,12.65
2023-01-17T20:46:31.747Z,10.88
2023-01-17T20:49:00.464Z,11.20
2023-01-17T20:51:28.818Z,11.85
2023-01-17T20:53:57.303Z,13.93
2023-01-17T20:56:25.436Z,10.57
2023-01-17T20:58:54.845Z,14.00
2023-01-17T21:01:24.287Z,9.95
2023-01-17T21:03:53.177Z,13.63
2023-01-17T21:06:24.618Z,17.05
2023-01-17T21:08:52.153Z,12.75
2023-01-17T21:11:21.315Z,13.70
2023-01-17T21:13:51.308Z,13.52
2023-01-17T21:16:20.276Z,10.45
2023-01-17T21:21:21.793Z,13.75
2023-01-17T21:23:49.770Z,10.07
2023-01-17T21:26:18.313Z,10.18
2023-01-17T21:28:46.205Z,8.57
2023-01-17T21:31:35.072Z,8.02
2023-01-17T21:34:04.043Z,16.42
2023-01-17T21:36:33.148Z,8.10
2023-01-17T21:41:34.656Z,14.68
2023-01-17T21:44:10.107Z,10.38
2023-01-17T21:49:05.497Z,8.80
2023-01-17T21:51:50.772Z,8.77
2023-01-17T21:54:17.174Z,11.18
2023-01-17T21:57:02.275Z,13.48
2023-01-17T21:59:31.201Z,12.43
2023-01-17T22:01:58.298Z,18.88
2023-01-17T22:04:25.712Z,12.82
2023-01-17T22:06:52.137Z,12.68
2023-01-17T22:09:18.563Z,10.60
2023-01-17T22:11:44.954Z,10.85
2023-01-17T22:14:11.573Z,11.30
2023-01-17T22:16:37.961Z,10.63
2023-01-17T22:19:04.556Z,8.90
2023-01-17T22:21:31.012Z,8.73
2023-01-17T22:23:59.487Z,11.70
2023-01-17T22:26:28.909Z,10.43
2023-01-17T22:28:56.367Z,7.40
2023-01-17T22:31:25.529Z,15.40
2023-01-17T22:33:58.058Z,11.10
2023-01-17T22:36:25.195Z,9.30
2023-01-17T22:38:51.586Z,9.45
2023-01-17T22:41:20.712Z,16.77
2023-01-17T22:43:50.411Z,9.32
2023-01-17T22:46:19.665Z,8.30
2023-01-17T22:48:46.416Z,10.70
2023-01-17T22:51:15.191Z,9.48
2023-01-17T22:53:43.321Z,10.55
2023-01-17T22:56:15.680Z,11.68
2023-01-17T22:58:44.903Z,10.10
2023-01-17T23:01:23.551Z,9.15
2023-01-17T23:03:53.935Z,11.07
2023-01-17T23:06:23.116Z,8.13
2023-01-17T23:08:51.683Z,8.07
2023-01-17T23:11:40.466Z,8.95
2023-01-17T23:14:12.225Z,8.27
2023-01-17T23:17:03.022Z,9.68
2023-01-17T23:19:33.532Z,8.25
2023-01-17T23:22:16.377Z,9.15
2023-01-17T23:24:58.388Z,8.75
2023-01-17T23:27:46.032Z,11.35
2023-01-17T23:30:14.141Z,9.02
2023-01-17T23:32:47.992Z,9.52
2023-01-17T23:35:15.533Z,10.20
2023-01-17T23:38:00.389Z,8.15
2023-01-17T23:40:27.025Z,11.85
2023-01-17T23:43:11.981Z,10.18
2023-01-17T23:45:39.355Z,9.25
2023-01-17T23:48:09.123Z,8.60
2023-01-17T23:50:37.138Z,7.07
2023-01-17T23:53:09.481Z,7.88
2023-01-17T23:55:40.696Z,9.07
2023-01-17T23:58:08.883Z,15.75
